sensor_id;sensor_type;location;lat;lon;timestamp;pressure;altitude;pressure_sealevel;temperature
70831;BMP180;58451;51.550;7.208;2022-08-06T00:01:12;101765.40;;;12.40
70831;BMP180;58451;51.550;7.208;2022-08-06T00:03:39;101766.00;;;12.40
70831;BMP180;58451;51.550;7.208;2022-08-06T00:06:06;101765.60;;;12.40
70831;BMP180;58451;51.550;7.208;2022-08-06T00:08:35;101767.60;;;12.30
70831;BMP180;58451;51.550;7.208;2022-08-06T00:11:03;101772.00;;;12.30
70831;BMP180;58451;51.550;7.208;2022-08-06T00:13:30;101774.60;;;12.30
70831;BMP180;58451;51.550;7.208;2022-08-06T00:15:56;101772.60;;;12.20
70831;BMP180;58451;51.550;7.208;2022-08-06T00:18:43;101775.00;;;12.20
70831;BMP180;58451;51.550;7.208;2022-08-06T00:21:10;101784.00;;;12.14
70831;BMP180;58451;51.550;7.208;2022-08-06T00:23:58;101788.20;;;12.10
70831;BMP180;58451;51.550;7.208;2022-08-06T00:26:24;101790.40;;;12.06
70831;BMP180;58451;51.550;7.208;2022-08-06T00:28:55;101795.80;;;12.00
70831;BMP180;58451;51.550;7.208;2022-08-06T00:31:22;101795.80;;;12.00
70831;BMP180;58451;51.550;7.208;2022-08-06T00:33:56;101789.80;;;11.90
70831;BMP180;58451;51.550;7.208;2022-08-06T00:36:24;101787.60;;;11.90
70831;BMP180;58451;51.550;7.208;2022-08-06T00:38:57;101795.60;;;11.80
70831;BMP180;58451;51.550;7.208;2022-08-06T00:41:27;101792.80;;;11.80
70831;BMP180;58451;51.550;7.208;2022-08-06T00:44:09;101800.20;;;11.70
70831;BMP180;58451;51.550;7.208;2022-08-06T00:46:40;101796.80;;;11.70
70831;BMP180;58451;51.550;7.208;2022-08-06T00:49:08;101797.00;;;11.68
70831;BMP180;58451;51.550;7.208;2022-08-06T00:51:38;101794.00;;;11.60
70831;BMP180;58451;51.550;7.208;2022-08-06T00:54:20;101799.20;;;11.56
70831;BMP180;58451;51.550;7.208;2022-08-06T00:57:03;101801.00;;;11.50
70831;BMP180;58451;51.550;7.208;2022-08-06T00:59:36;101804.60;;;11.50
70831;BMP180;58451;51.550;7.208;2022-08-06T01:02:03;101809.20;;;11.50
70831;BMP180;58451;51.550;7.208;2022-08-06T01:04:36;101808.00;;;11.42
70831;BMP180;58451;51.550;7.208;2022-08-06T01:07:04;101811.80;;;11.40
70831;BMP180;58451;51.550;7.208;2022-08-06T01:09:34;101816.20;;;11.40
70831;BMP180;58451;51.550;7.208;2022-08-06T01:12:21;101808.60;;;11.32
70831;BMP180;58451;51.550;7.208;2022-08-06T01:14:59;101813.60;;;11.30
70831;BMP180;58451;51.550;7.208;2022-08-06T01:17:43;101812.60;;;11.24
70831;BMP180;58451;51.550;7.208;2022-08-06T01:27:21;101815.40;;;11.10
70831;BMP180;58451;51.550;7.208;2022-08-06T01:30:17;101819.00;;;11.10
70831;BMP180;58451;51.550;7.208;2022-08-06T01:33:01;101820.80;;;11.04
70831;BMP180;58451;51.550;7.208;2022-08-06T01:35:40;101818.20;;;11.00
70831;BMP180;58451;51.550;7.208;2022-08-06T01:38:31;101820.60;;;11.00
70831;BMP180;58451;51.550;7.208;2022-08-06T01:41:07;101819.20;;;11.00
70831;BMP180;58451;51.550;7.208;2022-08-06T01:43:38;101823.80;;;10.94
70831;BMP180;58451;51.550;7.208;2022-08-06T01:46:27;101818.60;;;10.90
70831;BMP180;58451;51.550;7.208;2022-08-06T01:48:56;101818.20;;;10.90
70831;BMP180;58451;51.550;7.208;2022-08-06T01:51:37;101821.60;;;10.88
70831;BMP180;58451;51.550;7.208;2022-08-06T01:54:27;101822.20;;;10.80
70831;BMP180;58451;51.550;7.208;2022-08-06T01:57:00;101820.40;;;10.80
70831;BMP180;58451;51.550;7.208;2022-08-06T01:59:36;101829.00;;;10.80
70831;BMP180;58451;51.550;7.208;2022-08-06T02:02:11;101833.20;;;10.80
70831;BMP180;58451;51.550;7.208;2022-08-06T02:04:47;101825.40;;;10.80
70831;BMP180;58451;51.550;7.208;2022-08-06T02:07:23;101833.80;;;10.76
70831;BMP180;58451;51.550;7.208;2022-08-06T02:10:13;101831.40;;;10.80
70831;BMP180;58451;51.550;7.208;2022-08-06T02:12:44;101834.40;;;10.80
70831;BMP180;58451;51.550;7.208;2022-08-06T02:15:26;101833.60;;;10.70
70831;BMP180;58451;51.550;7.208;2022-08-06T02:18:17;101831.80;;;10.70
70831;BMP180;58451;51.550;7.208;2022-08-06T02:21:15;101833.00;;;10.70
70831;BMP180;58451;51.550;7.208;2022-08-06T02:24:03;101838.40;;;10.68
70831;BMP180;58451;51.550;7.208;2022-08-06T02:26:35;101837.60;;;10.60
70831;BMP180;58451;51.550;7.208;2022-08-06T02:29:08;101843.80;;;10.60
70831;BMP180;58451;51.550;7.208;2022-08-06T02:31:42;101846.00;;;10.60
70831;BMP180;58451;51.550;7.208;2022-08-06T02:34:19;101847.20;;;10.60
70831;BMP180;58451;51.550;7.208;2022-08-06T02:37:12;101854.00;;;10.58
70831;BMP180;58451;51.550;7.208;2022-08-06T02:40:09;101855.80;;;10.50
70831;BMP180;58451;51.550;7.208;2022-08-06T02:42:58;101858.00;;;10.50
70831;BMP180;58451;51.550;7.208;2022-08-06T02:45:36;101852.20;;;10.50
70831;BMP180;58451;51.550;7.208;2022-08-06T02:48:26;101848.20;;;10.50
70831;BMP180;58451;51.550;7.208;2022-08-06T02:51:04;101848.60;;;10.50
70831;BMP180;58451;51.550;7.208;2022-08-06T02:54:00;101848.00;;;10.50
70831;BMP180;58451;51.550;7.208;2022-08-06T02:56:33;101850.80;;;10.40
70831;BMP180;58451;51.550;7.208;2022-08-06T02:59:15;101852.60;;;10.40
70831;BMP180;58451;51.550;7.208;2022-08-06T03:01:52;101852.20;;;10.40
70831;BMP180;58451;51.550;7.208;2022-08-06T03:04:23;101852.60;;;10.40
70831;BMP180;58451;51.550;7.208;2022-08-06T03:07:07;101854.80;;;10.36
70831;BMP180;58451;51.550;7.208;2022-08-06T03:09:54;101852.00;;;10.30
70831;BMP180;58451;51.550;7.208;2022-08-06T03:12:23;101856.80;;;10.30
70831;BMP180;58451;51.550;7.208;2022-08-06T03:14:59;101859.60;;;10.30
70831;BMP180;58451;51.550;7.208;2022-08-06T03:17:38;101862.60;;;10.26
70831;BMP180;58451;51.550;7.208;2022-08-06T03:20:08;101869.00;;;10.20
70831;BMP180;58451;51.550;7.208;2022-08-06T03:22:49;101869.80;;;10.20
70831;BMP180;58451;51.550;7.208;2022-08-06T03:25:19;101871.00;;;10.20
70831;BMP180;58451;51.550;7.208;2022-08-06T03:27:51;101868.00;;;10.20
70831;BMP180;58451;51.550;7.208;2022-08-06T03:30:29;101872.40;;;10.20
70831;BMP180;58451;51.550;7.208;2022-08-06T03:33:07;101882.40;;;10.20
70831;BMP180;58451;51.550;7.208;2022-08-06T03:35:58;101882.80;;;10.20
70831;BMP180;58451;51.550;7.208;2022-08-06T03:38:31;101881.40;;;10.12
70831;BMP180;58451;51.550;7.208;2022-08-06T03:41:02;101880.00;;;10.10
70831;BMP180;58451;51.550;7.208;2022-08-06T03:43:34;101884.40;;;10.10
70831;BMP180;58451;51.550;7.208;2022-08-06T03:46:54;101893.60;;;10.10
70831;BMP180;58451;51.550;7.208;2022-08-06T03:49:38;101890.00;;;10.10
70831;BMP180;58451;51.550;7.208;2022-08-06T03:52:16;101897.00;;;10.10
70831;BMP180;58451;51.550;7.208;2022-08-06T03:54:53;101898.00;;;10.10
70831;BMP180;58451;51.550;7.208;2022-08-06T03:57:26;101897.20;;;10.10
70831;BMP180;58451;51.550;7.208;2022-08-06T04:00:17;101894.80;;;10.10
70831;BMP180;58451;51.550;7.208;2022-08-06T04:02:56;101902.00;;;10.04
70831;BMP180;58451;51.550;7.208;2022-08-06T04:05:31;101904.40;;;10.00
70831;BMP180;58451;51.550;7.208;2022-08-06T04:08:04;101904.40;;;10.00
70831;BMP180;58451;51.550;7.208;2022-08-06T04:10:47;101907.20;;;10.00
70831;BMP180;58451;51.550;7.208;2022-08-06T04:13:25;101905.60;;;10.00
70831;BMP180;58451;51.550;7.208;2022-08-06T04:16:15;101905.00;;;10.00
70831;BMP180;58451;51.550;7.208;2022-08-06T04:19:04;101911.20;;;10.10
70831;BMP180;58451;51.550;7.208;2022-08-06T04:21:38;101911.20;;;10.10
70831;BMP180;58451;51.550;7.208;2022-08-06T04:24:26;101907.80;;;10.10
70831;BMP180;58451;51.550;7.208;2022-08-06T04:26:59;101912.40;;;10.10
70831;BMP180;58451;51.550;7.208;2022-08-06T04:29:37;101913.80;;;10.10
70831;BMP180;58451;51.550;7.208;2022-08-06T04:32:26;101914.60;;;10.18
70831;BMP180;58451;51.550;7.208;2022-08-06T04:35:02;101914.80;;;10.18
70831;BMP180;58451;51.550;7.208;2022-08-06T04:37:50;101918.60;;;10.20
70831;BMP180;58451;51.550;7.208;2022-08-06T04:40:20;101922.80;;;10.20
70831;BMP180;58451;51.550;7.208;2022-08-06T04:43:04;101921.60;;;10.30
70831;BMP180;58451;51.550;7.208;2022-08-06T04:45:36;101929.40;;;10.30
70831;BMP180;58451;51.550;7.208;2022-08-06T04:48:24;101924.60;;;10.40
70831;BMP180;58451;51.550;7.208;2022-08-06T04:50:52;101928.40;;;10.40
70831;BMP180;58451;51.550;7.208;2022-08-06T04:53:20;101931.00;;;10.50
70831;BMP180;58451;51.550;7.208;2022-08-06T04:56:09;101933.40;;;10.60
70831;BMP180;58451;51.550;7.208;2022-08-06T04:58:43;101934.00;;;10.68
70831;BMP180;58451;51.550;7.208;2022-08-06T05:01:10;101925.40;;;10.80
70831;BMP180;58451;51.550;7.208;2022-08-06T05:03:38;101928.40;;;10.90
70831;BMP180;58451;51.550;7.208;2022-08-06T05:09:26;101936.40;;;11.22
70831;BMP180;58451;51.550;7.208;2022-08-06T05:12:32;101940.20;;;11.44
70831;BMP180;58451;51.550;7.208;2022-08-06T05:15:26;101942.00;;;11.60
70831;BMP180;58451;51.550;7.208;2022-08-06T05:18:22;101949.80;;;11.80
70831;BMP180;58451;51.550;7.208;2022-08-06T05:21:15;101953.80;;;11.98
70831;BMP180;58451;51.550;7.208;2022-08-06T05:23:52;101954.60;;;12.10
70831;BMP180;58451;51.550;7.208;2022-08-06T05:26:23;101949.00;;;12.20
70831;BMP180;58451;51.550;7.208;2022-08-06T05:28:52;101952.80;;;12.32
70831;BMP180;58451;51.550;7.208;2022-08-06T05:31:33;101954.20;;;12.46
70831;BMP180;58451;51.550;7.208;2022-08-06T05:34:11;101962.00;;;12.60
70831;BMP180;58451;51.550;7.208;2022-08-06T05:36:39;101964.00;;;12.66
70831;BMP180;58451;51.550;7.208;2022-08-06T05:39:09;101965.00;;;12.78
70831;BMP180;58451;51.550;7.208;2022-08-06T05:41:58;101970.00;;;12.88
70831;BMP180;58451;51.550;7.208;2022-08-06T05:44:27;101968.60;;;12.98
70831;BMP180;58451;51.550;7.208;2022-08-06T05:47:12;101970.80;;;13.00
70831;BMP180;58451;51.550;7.208;2022-08-06T05:49:59;101979.80;;;13.10
70831;BMP180;58451;51.550;7.208;2022-08-06T05:52:40;101980.40;;;13.20
70831;BMP180;58451;51.550;7.208;2022-08-06T05:55:35;101980.60;;;13.38
70831;BMP180;58451;51.550;7.208;2022-08-06T05:58:12;101984.80;;;13.50
70831;BMP180;58451;51.550;7.208;2022-08-06T06:00:41;101984.60;;;13.60
70831;BMP180;58451;51.550;7.208;2022-08-06T06:03:15;101988.00;;;13.70
70831;BMP180;58451;51.550;7.208;2022-08-06T06:05:57;101985.60;;;13.74
70831;BMP180;58451;51.550;7.208;2022-08-06T06:08:36;101984.40;;;13.90
70831;BMP180;58451;51.550;7.208;2022-08-06T06:11:23;101987.40;;;14.00
70831;BMP180;58451;51.550;7.208;2022-08-06T06:14:33;101987.20;;;14.10
70831;BMP180;58451;51.550;7.208;2022-08-06T06:18:10;101993.00;;;14.20
70831;BMP180;58451;51.550;7.208;2022-08-06T06:24:00;101999.80;;;14.50
70831;BMP180;58451;51.550;7.208;2022-08-06T06:26:46;102004.20;;;14.60
70831;BMP180;58451;51.550;7.208;2022-08-06T06:29:40;102005.80;;;14.70
70831;BMP180;58451;51.550;7.208;2022-08-06T06:33:01;102006.00;;;14.80
70831;BMP180;58451;51.550;7.208;2022-08-06T06:35:39;102002.80;;;14.90
70831;BMP180;58451;51.550;7.208;2022-08-06T06:38:31;102003.20;;;15.00
70831;BMP180;58451;51.550;7.208;2022-08-06T06:41:23;102005.20;;;15.10
70831;BMP180;58451;51.550;7.208;2022-08-06T06:44:44;102003.80;;;15.20
70831;BMP180;58451;51.550;7.208;2022-08-06T06:47:55;102006.80;;;15.30
70831;BMP180;58451;51.550;7.208;2022-08-06T06:50:41;102010.40;;;15.40
70831;BMP180;58451;51.550;7.208;2022-08-06T06:53:15;102008.80;;;15.50
70831;BMP180;58451;51.550;7.208;2022-08-06T06:55:49;102012.20;;;15.60
70831;BMP180;58451;51.550;7.208;2022-08-06T06:58:37;102013.40;;;15.70
70831;BMP180;58451;51.550;7.208;2022-08-06T07:01:16;102018.20;;;15.70
70831;BMP180;58451;51.550;7.208;2022-08-06T07:03:57;102024.20;;;15.80
70831;BMP180;58451;51.550;7.208;2022-08-06T07:06:30;102018.00;;;15.90
70831;BMP180;58451;51.550;7.208;2022-08-06T07:09:21;102019.00;;;16.00
70831;BMP180;58451;51.550;7.208;2022-08-06T07:12:10;102018.00;;;16.10
70831;BMP180;58451;51.550;7.208;2022-08-06T07:14:54;102019.40;;;16.20
70831;BMP180;58451;51.550;7.208;2022-08-06T07:17:30;102018.60;;;16.30
70831;BMP180;58451;51.550;7.208;2022-08-06T07:20:23;102026.60;;;16.40
70831;BMP180;58451;51.550;7.208;2022-08-06T07:22:58;102030.40;;;16.44
70831;BMP180;58451;51.550;7.208;2022-08-06T07:25:48;102028.20;;;16.60
70831;BMP180;58451;51.550;7.208;2022-08-06T07:28:23;102035.80;;;16.60
70831;BMP180;58451;51.550;7.208;2022-08-06T07:30:57;102034.40;;;16.70
70831;BMP180;58451;51.550;7.208;2022-08-06T07:33:38;102041.40;;;16.78
70831;BMP180;58451;51.550;7.208;2022-08-06T07:36:31;102040.40;;;16.80
70831;BMP180;58451;51.550;7.208;2022-08-06T07:39:10;102046.00;;;17.00
70831;BMP180;58451;51.550;7.208;2022-08-06T07:41:43;102039.40;;;17.00
70831;BMP180;58451;51.550;7.208;2022-08-06T07:44:36;102037.20;;;17.10
70831;BMP180;58451;51.550;7.208;2022-08-06T07:47:30;102043.80;;;17.20
70831;BMP180;58451;51.550;7.208;2022-08-06T07:50:22;102041.40;;;17.30
70831;BMP180;58451;51.550;7.208;2022-08-06T07:52:55;102039.40;;;17.40
70831;BMP180;58451;51.550;7.208;2022-08-06T07:55:25;102040.40;;;17.40
70831;BMP180;58451;51.550;7.208;2022-08-06T07:58:07;102044.40;;;17.50
70831;BMP180;58451;51.550;7.208;2022-08-06T08:00:36;102042.00;;;17.40
70831;BMP180;58451;51.550;7.208;2022-08-06T08:03:06;102045.60;;;17.50
70831;BMP180;58451;51.550;7.208;2022-08-06T08:06:14;102047.20;;;17.60
70831;BMP180;58451;51.550;7.208;2022-08-06T08:11:31;102044.00;;;17.70
70831;BMP180;58451;51.550;7.208;2022-08-06T08:14:21;102042.80;;;17.72
70831;BMP180;58451;51.550;7.208;2022-08-06T08:16:51;102047.80;;;17.80
70831;BMP180;58451;51.550;7.208;2022-08-06T08:19:23;102046.40;;;17.96
70831;BMP180;58451;51.550;7.208;2022-08-06T08:21:53;102045.60;;;18.00
70831;BMP180;58451;51.550;7.208;2022-08-06T08:24:25;102047.60;;;18.10
70831;BMP180;58451;51.550;7.208;2022-08-06T08:26:53;102048.20;;;18.20
70831;BMP180;58451;51.550;7.208;2022-08-06T08:29:42;102050.60;;;18.30
70831;BMP180;58451;51.550;7.208;2022-08-06T08:32:21;102049.20;;;18.40
70831;BMP180;58451;51.550;7.208;2022-08-06T08:34:49;102045.00;;;18.40
70831;BMP180;58451;51.550;7.208;2022-08-06T08:37:19;102046.40;;;18.50
70831;BMP180;58451;51.550;7.208;2022-08-06T08:39:46;102040.00;;;18.40
70831;BMP180;58451;51.550;7.208;2022-08-06T08:42:28;102047.00;;;18.50
70831;BMP180;58451;51.550;7.208;2022-08-06T08:45:03;102038.20;;;18.50
70831;BMP180;58451;51.550;7.208;2022-08-06T08:47:33;102040.20;;;18.70
70831;BMP180;58451;51.550;7.208;2022-08-06T08:50:25;102041.60;;;18.90
70831;BMP180;58451;51.550;7.208;2022-08-06T08:53:15;102039.60;;;19.00
70831;BMP180;58451;51.550;7.208;2022-08-06T08:56:07;102045.60;;;19.00
70831;BMP180;58451;51.550;7.208;2022-08-06T08:58:55;102042.20;;;19.00
70831;BMP180;58451;51.550;7.208;2022-08-06T09:01:43;102042.00;;;19.00
70831;BMP180;58451;51.550;7.208;2022-08-06T09:04:20;102037.80;;;19.00
70831;BMP180;58451;51.550;7.208;2022-08-06T09:06:53;102037.20;;;19.16
70831;BMP180;58451;51.550;7.208;2022-08-06T09:09:21;102040.20;;;19.22
70831;BMP180;58451;51.550;7.208;2022-08-06T09:11:59;102053.80;;;19.32
70831;BMP180;58451;51.550;7.208;2022-08-06T09:14:35;102054.20;;;19.30
70831;BMP180;58451;51.550;7.208;2022-08-06T09:17:05;102053.20;;;19.40
70831;BMP180;58451;51.550;7.208;2022-08-06T09:19:38;102058.00;;;19.50
70831;BMP180;58451;51.550;7.208;2022-08-06T09:22:08;102054.00;;;19.50
70831;BMP180;58451;51.550;7.208;2022-08-06T09:24:38;102054.00;;;19.50
70831;BMP180;58451;51.550;7.208;2022-08-06T09:27:06;102059.60;;;19.60
70831;BMP180;58451;51.550;7.208;2022-08-06T09:29:58;102059.80;;;19.60
70831;BMP180;58451;51.550;7.208;2022-08-06T09:32:47;102055.20;;;19.68
70831;BMP180;58451;51.550;7.208;2022-08-06T09:35:28;102054.80;;;19.60
70831;BMP180;58451;51.550;7.208;2022-08-06T09:38:13;102051.80;;;19.80
70831;BMP180;58451;51.550;7.208;2022-08-06T09:41:09;102053.80;;;19.80
70831;BMP180;58451;51.550;7.208;2022-08-06T09:43:44;102057.00;;;19.90
70831;BMP180;58451;51.550;7.208;2022-08-06T09:46:47;102056.00;;;20.10
70831;BMP180;58451;51.550;7.208;2022-08-06T09:49:19;102056.80;;;20.40
70831;BMP180;58451;51.550;7.208;2022-08-06T09:52:16;102059.00;;;20.32
70831;BMP180;58451;51.550;7.208;2022-08-06T09:54:45;102060.60;;;20.50
70831;BMP180;58451;51.550;7.208;2022-08-06T09:57:25;102060.60;;;20.70
70831;BMP180;58451;51.550;7.208;2022-08-06T10:00:00;102060.60;;;20.60
70831;BMP180;58451;51.550;7.208;2022-08-06T10:02:34;102064.60;;;20.84
70831;BMP180;58451;51.550;7.208;2022-08-06T10:05:13;102066.40;;;21.10
70831;BMP180;58451;51.550;7.208;2022-08-06T10:08:12;102058.60;;;21.28
70831;BMP180;58451;51.550;7.208;2022-08-06T10:10:51;102068.60;;;21.40
70831;BMP180;58451;51.550;7.208;2022-08-06T10:15:47;102061.00;;;21.60
70831;BMP180;58451;51.550;7.208;2022-08-06T10:18:42;102071.80;;;21.70
70831;BMP180;58451;51.550;7.208;2022-08-06T10:21:33;102074.40;;;22.00
70831;BMP180;58451;51.550;7.208;2022-08-06T10:24:10;102071.20;;;22.20
70831;BMP180;58451;51.550;7.208;2022-08-06T10:26:40;102072.00;;;22.20
70831;BMP180;58451;51.550;7.208;2022-08-06T10:29:11;102067.80;;;22.40
70831;BMP180;58451;51.550;7.208;2022-08-06T10:31:41;102064.00;;;22.64
70831;BMP180;58451;51.550;7.208;2022-08-06T10:36:56;102058.60;;;23.20
70831;BMP180;58451;51.550;7.208;2022-08-06T10:39:34;102059.80;;;22.90
70831;BMP180;58451;51.550;7.208;2022-08-06T10:42:21;102055.40;;;22.28
70831;BMP180;58451;51.550;7.208;2022-08-06T10:44:52;102054.60;;;22.10
70831;BMP180;58451;51.550;7.208;2022-08-06T10:47:21;102044.20;;;22.30
70831;BMP180;58451;51.550;7.208;2022-08-06T10:50:09;102052.60;;;22.30
70831;BMP180;58451;51.550;7.208;2022-08-06T10:52:58;102062.00;;;22.32
70831;BMP180;58451;51.550;7.208;2022-08-06T10:55:29;102055.40;;;22.20
70831;BMP180;58451;51.550;7.208;2022-08-06T10:58:10;102052.20;;;22.10
70831;BMP180;58451;51.550;7.208;2022-08-06T11:00:41;102055.20;;;22.12
70831;BMP180;58451;51.550;7.208;2022-08-06T11:12:54;102054.60;;;22.00
70831;BMP180;58451;51.550;7.208;2022-08-06T11:15:23;102049.60;;;21.74
70831;BMP180;58451;51.550;7.208;2022-08-06T11:18:07;102048.80;;;21.60
70831;BMP180;58451;51.550;7.208;2022-08-06T11:20:47;102044.80;;;21.52
70831;BMP180;58451;51.550;7.208;2022-08-06T11:26:03;102027.40;;;21.98
70831;BMP180;58451;51.550;7.208;2022-08-06T11:31:01;102027.60;;;22.82
70831;BMP180;58451;51.550;7.208;2022-08-06T11:36:10;102025.20;;;23.70
70831;BMP180;58451;51.550;7.208;2022-08-06T11:41:30;102019.20;;;24.00
70831;BMP180;58451;51.550;7.208;2022-08-06T11:44:28;102027.60;;;24.00
70831;BMP180;58451;51.550;7.208;2022-08-06T11:49:47;102030.00;;;23.70
70831;BMP180;58451;51.550;7.208;2022-08-06T11:55:13;102040.80;;;23.20
70831;BMP180;58451;51.550;7.208;2022-08-06T12:01:00;102044.40;;;22.60
70831;BMP180;58451;51.550;7.208;2022-08-06T12:03:48;102036.80;;;22.40
70831;BMP180;58451;51.550;7.208;2022-08-06T12:06:23;102029.80;;;22.50
70831;BMP180;58451;51.550;7.208;2022-08-06T12:09:12;102026.60;;;22.80
70831;BMP180;58451;51.550;7.208;2022-08-06T12:15:01;102020.00;;;23.36
70831;BMP180;58451;51.550;7.208;2022-08-06T12:17:32;102019.60;;;23.80
70831;BMP180;58451;51.550;7.208;2022-08-06T12:20:39;102015.00;;;24.06
70831;BMP180;58451;51.550;7.208;2022-08-06T12:23:18;102011.60;;;24.40
70831;BMP180;58451;51.550;7.208;2022-08-06T12:25:55;102026.60;;;24.72
70831;BMP180;58451;51.550;7.208;2022-08-06T12:28:23;102015.00;;;24.50
70831;BMP180;58451;51.550;7.208;2022-08-06T12:30:53;102026.80;;;24.50
70831;BMP180;58451;51.550;7.208;2022-08-06T12:33:23;102026.80;;;24.36
70831;BMP180;58451;51.550;7.208;2022-08-06T12:35:59;102030.00;;;24.30
70831;BMP180;58451;51.550;7.208;2022-08-06T12:38:32;102023.80;;;24.00
70831;BMP180;58451;51.550;7.208;2022-08-06T12:41:07;102023.20;;;23.90
70831;BMP180;58451;51.550;7.208;2022-08-06T12:43:42;102021.40;;;23.86
70831;BMP180;58451;51.550;7.208;2022-08-06T12:46:25;102021.60;;;23.70
70831;BMP180;58451;51.550;7.208;2022-08-06T12:48:58;102018.80;;;23.90
70831;BMP180;58451;51.550;7.208;2022-08-06T12:51:29;102019.20;;;23.92
70831;BMP180;58451;51.550;7.208;2022-08-06T12:54:06;102015.80;;;23.90
70831;BMP180;58451;51.550;7.208;2022-08-06T12:56:38;102007.20;;;24.10
70831;BMP180;58451;51.550;7.208;2022-08-06T12:59:11;102003.00;;;24.08
70831;BMP180;58451;51.550;7.208;2022-08-06T13:01:51;101995.20;;;24.30
70831;BMP180;58451;51.550;7.208;2022-08-06T13:04:43;102000.00;;;24.76
70831;BMP180;58451;51.550;7.208;2022-08-06T13:07:15;101998.80;;;25.02
70831;BMP180;58451;51.550;7.208;2022-08-06T13:09:47;101990.00;;;24.90
70831;BMP180;58451;51.550;7.208;2022-08-06T13:12:34;101983.60;;;24.70
70831;BMP180;58451;51.550;7.208;2022-08-06T13:15:24;101988.80;;;24.80
70831;BMP180;58451;51.550;7.208;2022-08-06T13:18:15;101984.60;;;24.60
70831;BMP180;58451;51.550;7.208;2022-08-06T13:21:16;101982.60;;;24.86
70831;BMP180;58451;51.550;7.208;2022-08-06T13:23:47;101982.20;;;25.00
70831;BMP180;58451;51.550;7.208;2022-08-06T13:26:29;101980.00;;;24.86
70831;BMP180;58451;51.550;7.208;2022-08-06T13:29:16;101980.80;;;24.90
70831;BMP180;58451;51.550;7.208;2022-08-06T13:32:10;101988.80;;;25.10
70831;BMP180;58451;51.550;7.208;2022-08-06T13:35:03;101991.80;;;24.88
70831;BMP180;58451;51.550;7.208;2022-08-06T13:37:49;101987.60;;;24.60
70831;BMP180;58451;51.550;7.208;2022-08-06T13:40:56;101989.60;;;24.40
70831;BMP180;58451;51.550;7.208;2022-08-06T13:43:39;101989.00;;;24.30
70831;BMP180;58451;51.550;7.208;2022-08-06T13:46:27;101987.60;;;24.40
70831;BMP180;58451;51.550;7.208;2022-08-06T13:49:00;101983.00;;;24.50
70831;BMP180;58451;51.550;7.208;2022-08-06T13:51:40;101979.20;;;24.70
70831;BMP180;58451;51.550;7.208;2022-08-06T13:54:22;101973.40;;;24.70
70831;BMP180;58451;51.550;7.208;2022-08-06T13:56:51;101979.80;;;24.34
70831;BMP180;58451;51.550;7.208;2022-08-06T13:59:27;101976.00;;;24.30
70831;BMP180;58451;51.550;7.208;2022-08-06T14:02:09;101980.40;;;24.10
70831;BMP180;58451;51.550;7.208;2022-08-06T14:04:37;101977.60;;;24.00
70831;BMP180;58451;51.550;7.208;2022-08-06T14:07:06;101969.40;;;24.10
70831;BMP180;58451;51.550;7.208;2022-08-06T14:09:33;101962.60;;;24.14
70831;BMP180;58451;51.550;7.208;2022-08-06T14:12:20;101927.60;;;25.38
70831;BMP180;58451;51.550;7.208;2022-08-06T14:14:55;101923.00;;;26.70
70831;BMP180;58451;51.550;7.208;2022-08-06T14:17:22;101927.80;;;27.78
70831;BMP180;58451;51.550;7.208;2022-08-06T14:20:02;101914.00;;;28.96
70831;BMP180;58451;51.550;7.208;2022-08-06T14:22:45;101966.20;;;29.56
70831;BMP180;58451;51.550;7.208;2022-08-06T14:25:15;101973.60;;;28.48
70831;BMP180;58451;51.550;7.208;2022-08-06T14:27:43;101967.60;;;27.80
70831;BMP180;58451;51.550;7.208;2022-08-06T14:30:13;101971.40;;;27.50
70831;BMP180;58451;51.550;7.208;2022-08-06T14:33:04;101936.00;;;27.34
70831;BMP180;58451;51.550;7.208;2022-08-06T14:35:51;101919.40;;;28.08
70831;BMP180;58451;51.550;7.208;2022-08-06T14:38:20;101919.80;;;29.36
70831;BMP180;58451;51.550;7.208;2022-08-06T14:40:57;101921.60;;;30.36
70831;BMP180;58451;51.550;7.208;2022-08-06T14:43:43;101923.20;;;30.94
70831;BMP180;58451;51.550;7.208;2022-08-06T14:46:30;101920.00;;;31.30
70831;BMP180;58451;51.550;7.208;2022-08-06T14:49:01;101918.20;;;31.60
70831;BMP180;58451;51.550;7.208;2022-08-06T14:51:39;101915.60;;;32.20
70831;BMP180;58451;51.550;7.208;2022-08-06T14:54:28;101909.20;;;33.00
70831;BMP180;58451;51.550;7.208;2022-08-06T14:57:07;101911.20;;;33.68
70831;BMP180;58451;51.550;7.208;2022-08-06T14:59:46;101906.80;;;34.42
70831;BMP180;58451;51.550;7.208;2022-08-06T15:02:23;101900.40;;;34.82
70831;BMP180;58451;51.550;7.208;2022-08-06T15:04:54;101893.40;;;34.84
70831;BMP180;58451;51.550;7.208;2022-08-06T15:07:27;101894.00;;;35.18
70831;BMP180;58451;51.550;7.208;2022-08-06T15:10:09;101886.60;;;36.24
70831;BMP180;58451;51.550;7.208;2022-08-06T15:12:53;101889.00;;;36.64
70831;BMP180;58451;51.550;7.208;2022-08-06T15:15:30;101884.40;;;36.92
70831;BMP180;58451;51.550;7.208;2022-08-06T15:18:14;101882.00;;;37.50
70831;BMP180;58451;51.550;7.208;2022-08-06T15:21:02;101883.20;;;38.42
70831;BMP180;58451;51.550;7.208;2022-08-06T15:23:29;101882.40;;;38.36
70831;BMP180;58451;51.550;7.208;2022-08-06T15:26:16;101882.00;;;39.32
70831;BMP180;58451;51.550;7.208;2022-08-06T15:29:04;101881.80;;;39.46
70831;BMP180;58451;51.550;7.208;2022-08-06T15:31:37;101892.20;;;39.78
70831;BMP180;58451;51.550;7.208;2022-08-06T15:34:06;101950.20;;;38.60
70831;BMP180;58451;51.550;7.208;2022-08-06T15:36:39;101947.80;;;35.96
70831;BMP180;58451;51.550;7.208;2022-08-06T15:39:27;101943.80;;;33.84
70831;BMP180;58451;51.550;7.208;2022-08-06T15:42:14;101945.40;;;32.14
70831;BMP180;58451;51.550;7.208;2022-08-06T15:44:44;101943.60;;;31.10
70831;BMP180;58451;51.550;7.208;2022-08-06T15:47:12;101943.20;;;29.96
70831;BMP180;58451;51.550;7.208;2022-08-06T15:49:41;101940.20;;;29.20
70831;BMP180;58451;51.550;7.208;2022-08-06T15:52:28;101936.20;;;28.58
70831;BMP180;58451;51.550;7.208;2022-08-06T15:55:00;101937.80;;;27.86
70831;BMP180;58451;51.550;7.208;2022-08-06T15:57:27;101941.60;;;27.50
70831;BMP180;58451;51.550;7.208;2022-08-06T16:00:16;101938.80;;;27.08